This is the latest recevied weather packets stored in our database for station/object DG2YCM-10. If no packets are shown the sender has not sent any weather packets the latest 10 day(s).
| Time | Temp. | Humidity | Pressure | Rain* | Wind** | Luminosity | Snow |
|---|---|---|---|---|---|---|---|
| 1778230204 | 18.33° C | 56% | 1011.7 hPa | - | - | - | - |
| 1778226663 | 15.56° C | 69% | 1011.7 hPa | - | - | - | - |
| 1778223123 | 13.33° C | 84% | 1011.6 hPa | - | - | - | - |
| 1778219583 | 10.56° C | 95% | 1011.5 hPa | - | - | - | - |
| 1778216043 | 8.33° C | 100% | 1011.3 hPa | - | - | - | - |
| 1778212502 | 7.78° C | 99% | 1011.1 hPa | - | - | - | - |
| 1778208962 | 8.33° C | 95% | 1011 hPa | - | - | - | - |
| 1778205422 | 8.89° C | 94% | 1011 hPa | - | - | - | - |
| 1778201882 | 10° C | 92% | 1010.8 hPa | - | - | - | - |
| 1778198342 | 10.56° C | 91% | 1011 hPa | - | - | - | - |
| 1778194802 | 11.67° C | 90% | 1011.2 hPa | - | - | - | - |
| 1778191262 | 12.22° C | 88% | 1011.3 hPa | - | - | - | - |
| 1778187722 | 13.33° C | 82% | 1011.1 hPa | - | - | - | - |
| 1778184181 | 13.33° C | 78% | 1010.7 hPa | - | - | - | - |
| 1778180641 | 14.44° C | 75% | 1010.3 hPa | - | - | - | - |
| 1778177101 | 15° C | 69% | 1010.1 hPa | - | - | - | - |
| 1778173561 | 16.11° C | 61% | 1010 hPa | - | - | - | - |
| 1778170020 | 16.67° C | 57% | 1009.9 hPa | - | - | - | - |
| 1778166480 | 16.11° C | 61% | 1009.8 hPa | - | - | - | - |
| 1778162940 | 17.22° C | 57% | 1010 hPa | - | - | - | - |
| 1778159400 | 17.22° C | 58% | 1010 hPa | - | - | - | - |
| 1778155864 | 16.67° C | 60% | 1010 hPa | - | - | - | - |
| 1778152320 | 15.56° C | 60% | 1009.8 hPa | - | - | - | - |
| 1778148779 | 15° C | 67% | 1009.8 hPa | - | - | - | - |
| 1778145239 | 13.33° C | 74% | 1009.5 hPa | - | - | - | - |
* Rain since midnight (hover to see other rain measurements)
** Current wind speed in m/s (hover to see current wind gust speed)